sensor_id;sensor_type;location;lat;lon;timestamp;P1;durP1;ratioP1;P2;durP2;ratioP2
62457;SDS011;48509;52.122;5.250;2022-08-04T00:00:22;5.6;;;2.5;;
62457;SDS011;48509;52.122;5.250;2022-08-04T00:02:09;3.7;;;2.5;;
62457;SDS011;48509;52.122;5.250;2022-08-04T00:05:59;6.9;;;2.5;;
62457;SDS011;48509;52.122;5.250;2022-08-04T00:07:51;3.6;;;2.4;;
62457;SDS011;48509;52.122;5.250;2022-08-04T00:09:54;8.0;;;2.5;;
62457;SDS011;48509;52.122;5.250;2022-08-04T00:13:37;5.11;;;2.5;;
62457;SDS011;48509;52.122;5.250;2022-08-04T00:15:27;5.11;;;2.6;;
62457;SDS011;48509;52.122;5.250;2022-08-04T00:17:18;4.3;;;2.8;;
62457;SDS011;48509;52.122;5.250;2022-08-04T00:19:10;7.5;;;2.5;;
62457;SDS011;48509;52.122;5.250;2022-08-04T00:20:58;5.8;;;2.8;;
62457;SDS011;48509;52.122;5.250;2022-08-04T00:22:49;5.8;;;2.8;;
62457;SDS011;48509;52.122;5.250;2022-08-04T00:24:37;5.8;;;2.6;;
62457;SDS011;48509;52.122;5.250;2022-08-04T00:28:12;4.2;;;2.7;;
62457;SDS011;48509;52.122;5.250;2022-08-04T00:30:01;9.81;;;2.8;;
62457;SDS011;48509;52.122;5.250;2022-08-04T00:33:38;6.1;;;2.31;;
62457;SDS011;48509;52.122;5.250;2022-08-04T00:35:25;5.6;;;2.6;;
62457;SDS011;48509;52.122;5.250;2022-08-04T00:37:13;5.9;;;2.7;;
62457;SDS011;48509;52.122;5.250;2022-08-04T00:40:49;5.9;;;2.9;;
62457;SDS011;48509;52.122;5.250;2022-08-04T00:42:50;4.91;;;2.6;;
62457;SDS011;48509;52.122;5.250;2022-08-04T00:44:53;4.3;;;2.5;;
62457;SDS011;48509;52.122;5.250;2022-08-04T00:46:59;10.6;;;2.8;;
62457;SDS011;48509;52.122;5.250;2022-08-04T00:49:00;3.5;;;2.4;;
62457;SDS011;48509;52.122;5.250;2022-08-04T00:51:14;4.5;;;2.7;;
62457;SDS011;48509;52.122;5.250;2022-08-04T00:53:12;4.8;;;2.8;;
62457;SDS011;48509;52.122;5.250;2022-08-04T00:55:16;4.5;;;2.8;;
62457;SDS011;48509;52.122;5.250;2022-08-04T00:57:52;7.0;;;3.0;;
62457;SDS011;48509;52.122;5.250;2022-08-04T01:00:58;6.2;;;2.9;;
62457;SDS011;48509;52.122;5.250;2022-08-04T01:02:51;3.5;;;2.6;;
62457;SDS011;48509;52.122;5.250;2022-08-04T01:05:02;8.2;;;2.7;;
62457;SDS011;48509;52.122;5.250;2022-08-04T01:06:55;6.5;;;3.1;;
62457;SDS011;48509;52.122;5.250;2022-08-04T01:09:13;5.0;;;2.9;;
62457;SDS011;48509;52.122;5.250;2022-08-04T01:11:20;3.5;;;2.7;;
62457;SDS011;48509;52.122;5.250;2022-08-04T01:13:34;4.5;;;2.6;;
62457;SDS011;48509;52.122;5.250;2022-08-04T01:15:38;5.4;;;3.1;;
62457;SDS011;48509;52.122;5.250;2022-08-04T01:17:34;4.91;;;2.8;;
62457;SDS011;48509;52.122;5.250;2022-08-04T01:19:38;5.11;;;2.8;;
62457;SDS011;48509;52.122;5.250;2022-08-04T01:21:58;5.0;;;3.1;;
62457;SDS011;48509;52.122;5.250;2022-08-04T01:24:08;5.11;;;2.8;;
62457;SDS011;48509;52.122;5.250;2022-08-04T01:27:17;4.5;;;2.8;;
62457;SDS011;48509;52.122;5.250;2022-08-04T01:29:17;6.5;;;3.0;;
62457;SDS011;48509;52.122;5.250;2022-08-04T01:33:07;3.8;;;2.9;;
62457;SDS011;48509;52.122;5.250;2022-08-04T01:34:59;4.8;;;3.1;;
62457;SDS011;48509;52.122;5.250;2022-08-04T01:37:01;5.7;;;3.5;;
62457;SDS011;48509;52.122;5.250;2022-08-04T01:38:55;4.1;;;3.2;;
62457;SDS011;48509;52.122;5.250;2022-08-04T01:40:43;5.5;;;2.9;;
62457;SDS011;48509;52.122;5.250;2022-08-04T01:42:33;5.5;;;3.2;;
62457;SDS011;48509;52.122;5.250;2022-08-04T01:44:22;4.5;;;3.0;;
62457;SDS011;48509;52.122;5.250;2022-08-04T01:46:13;4.61;;;3.2;;
62457;SDS011;48509;52.122;5.250;2022-08-04T01:48:02;5.11;;;2.9;;
62457;SDS011;48509;52.122;5.250;2022-08-04T01:51:46;8.71;;;3.3;;
62457;SDS011;48509;52.122;5.250;2022-08-04T01:53:36;4.61;;;3.1;;
62457;SDS011;48509;52.122;5.250;2022-08-04T01:55:26;5.9;;;3.2;;
62457;SDS011;48509;52.122;5.250;2022-08-04T01:57:14;4.61;;;3.2;;
62457;SDS011;48509;52.122;5.250;2022-08-04T01:59:02;5.3;;;3.3;;
62457;SDS011;48509;52.122;5.250;2022-08-04T02:00:49;7.0;;;3.3;;
62457;SDS011;48509;52.122;5.250;2022-08-04T02:02:43;5.5;;;3.1;;
62457;SDS011;48509;52.122;5.250;2022-08-04T02:06:19;4.8;;;3.2;;
62457;SDS011;48509;52.122;5.250;2022-08-04T02:08:18;6.1;;;3.4;;
62457;SDS011;48509;52.122;5.250;2022-08-04T02:10:17;6.0;;;3.3;;
62457;SDS011;48509;52.122;5.250;2022-08-04T02:12:22;4.1;;;3.0;;
62457;SDS011;48509;52.122;5.250;2022-08-04T02:14:13;5.8;;;3.4;;
62457;SDS011;48509;52.122;5.250;2022-08-04T02:16:12;5.6;;;3.3;;
62457;SDS011;48509;52.122;5.250;2022-08-04T02:18:10;5.4;;;3.3;;
62457;SDS011;48509;52.122;5.250;2022-08-04T02:20:18;5.2;;;3.1;;
62457;SDS011;48509;52.122;5.250;2022-08-04T02:22:15;5.4;;;3.4;;
62457;SDS011;48509;52.122;5.250;2022-08-04T02:24:07;9.1;;;3.1;;
62457;SDS011;48509;52.122;5.250;2022-08-04T02:26:00;6.9;;;3.5;;
62457;SDS011;48509;52.122;5.250;2022-08-04T02:27:54;5.9;;;3.4;;
62457;SDS011;48509;52.122;5.250;2022-08-04T02:30:15;5.0;;;3.7;;
62457;SDS011;48509;52.122;5.250;2022-08-04T02:32:06;4.0;;;3.1;;
62457;SDS011;48509;52.122;5.250;2022-08-04T02:35:55;7.2;;;3.6;;
62457;SDS011;48509;52.122;5.250;2022-08-04T02:37:46;9.1;;;3.3;;
62457;SDS011;48509;52.122;5.250;2022-08-04T02:39:41;7.3;;;3.6;;
62457;SDS011;48509;52.122;5.250;2022-08-04T02:41:31;6.2;;;3.3;;
62457;SDS011;48509;52.122;5.250;2022-08-04T02:43:19;5.9;;;3.5;;
62457;SDS011;48509;52.122;5.250;2022-08-04T02:45:11;5.9;;;3.1;;
62457;SDS011;48509;52.122;5.250;2022-08-04T02:46:58;6.6;;;3.1;;
62457;SDS011;48509;52.122;5.250;2022-08-04T02:48:47;5.4;;;3.2;;
62457;SDS011;48509;52.122;5.250;2022-08-04T02:52:23;6.7;;;3.4;;
62457;SDS011;48509;52.122;5.250;2022-08-04T02:54:11;6.8;;;3.2;;
62457;SDS011;48509;52.122;5.250;2022-08-04T02:56:02;6.8;;;3.4;;
62457;SDS011;48509;52.122;5.250;2022-08-04T02:57:51;8.81;;;3.5;;
62457;SDS011;48509;52.122;5.250;2022-08-04T02:59:45;7.2;;;3.4;;
62457;SDS011;48509;52.122;5.250;2022-08-04T03:01:49;8.1;;;3.5;;
62457;SDS011;48509;52.122;5.250;2022-08-04T03:03:37;4.7;;;3.6;;
62457;SDS011;48509;52.122;5.250;2022-08-04T03:05:33;5.0;;;3.2;;
62457;SDS011;48509;52.122;5.250;2022-08-04T03:07:47;5.3;;;3.0;;
62457;SDS011;48509;52.122;5.250;2022-08-04T03:10:57;6.4;;;3.3;;
62457;SDS011;48509;52.122;5.250;2022-08-04T03:14:12;4.7;;;3.5;;
62457;SDS011;48509;52.122;5.250;2022-08-04T03:22:06;7.8;;;3.6;;
62457;SDS011;48509;52.122;5.250;2022-08-04T03:24:45;5.2;;;3.3;;
62457;SDS011;48509;52.122;5.250;2022-08-04T03:27:34;5.8;;;3.2;;
62457;SDS011;48509;52.122;5.250;2022-08-04T03:28:53;5.8;;;3.2;;
62457;SDS011;48509;52.122;5.250;2022-08-04T03:29:31;6.4;;;3.2;;
62457;SDS011;48509;52.122;5.250;2022-08-04T03:30:24;6.4;;;3.2;;
62457;SDS011;48509;52.122;5.250;2022-08-04T03:33:56;6.0;;;3.6;;
62457;SDS011;48509;52.122;5.250;2022-08-04T03:36:45;8.4;;;3.6;;
62457;SDS011;48509;52.122;5.250;2022-08-04T03:39:41;4.61;;;3.2;;
62457;SDS011;48509;52.122;5.250;2022-08-04T03:42:55;5.3;;;3.5;;
62457;SDS011;48509;52.122;5.250;2022-08-04T03:46:40;6.3;;;3.2;;
62457;SDS011;48509;52.122;5.250;2022-08-04T03:49:44;5.7;;;3.5;;
62457;SDS011;48509;52.122;5.250;2022-08-04T03:53:32;6.1;;;3.2;;
62457;SDS011;48509;52.122;5.250;2022-08-04T03:55:37;6.8;;;3.3;;
62457;SDS011;48509;52.122;5.250;2022-08-04T03:58:10;6.8;;;3.2;;
62457;SDS011;48509;52.122;5.250;2022-08-04T04:01:53;5.9;;;3.8;;
62457;SDS011;48509;52.122;5.250;2022-08-04T04:05:37;4.8;;;3.2;;
62457;SDS011;48509;52.122;5.250;2022-08-04T04:07:56;4.1;;;3.1;;
62457;SDS011;48509;52.122;5.250;2022-08-04T04:10:17;5.0;;;3.4;;
62457;SDS011;48509;52.122;5.250;2022-08-04T04:13:33;8.31;;;3.3;;
62457;SDS011;48509;52.122;5.250;2022-08-04T04:15:50;6.1;;;3.4;;
62457;SDS011;48509;52.122;5.250;2022-08-04T04:19:53;7.0;;;3.4;;
62457;SDS011;48509;52.122;5.250;2022-08-04T04:22:12;5.5;;;3.3;;
62457;SDS011;48509;52.122;5.250;2022-08-04T04:24:18;6.4;;;3.5;;
62457;SDS011;48509;52.122;5.250;2022-08-04T04:26:41;5.3;;;3.2;;
62457;SDS011;48509;52.122;5.250;2022-08-04T04:28:58;8.2;;;3.5;;
62457;SDS011;48509;52.122;5.250;2022-08-04T04:31:01;5.9;;;3.5;;
62457;SDS011;48509;52.122;5.250;2022-08-04T04:33:05;8.2;;;3.8;;
62457;SDS011;48509;52.122;5.250;2022-08-04T04:35:19;8.2;;;3.8;;
62457;SDS011;48509;52.122;5.250;2022-08-04T04:37:20;7.8;;;3.5;;
62457;SDS011;48509;52.122;5.250;2022-08-04T04:39:25;5.8;;;3.2;;
62457;SDS011;48509;52.122;5.250;2022-08-04T04:41:29;5.8;;;3.8;;
62457;SDS011;48509;52.122;5.250;2022-08-04T04:44:22;5.6;;;4.2;;
62457;SDS011;48509;52.122;5.250;2022-08-04T04:47:57;4.3;;;3.4;;
62457;SDS011;48509;52.122;5.250;2022-08-04T04:49:53;6.1;;;3.3;;
62457;SDS011;48509;52.122;5.250;2022-08-04T04:51:50;4.61;;;3.3;;
62457;SDS011;48509;52.122;5.250;2022-08-04T04:53:45;5.5;;;3.4;;
62457;SDS011;48509;52.122;5.250;2022-08-04T04:56:26;5.2;;;3.4;;
62457;SDS011;48509;52.122;5.250;2022-08-04T05:00:12;6.7;;;3.6;;
62457;SDS011;48509;52.122;5.250;2022-08-04T05:02:06;6.4;;;3.0;;
62457;SDS011;48509;52.122;5.250;2022-08-04T05:05:42;11.5;;;3.5;;
62457;SDS011;48509;52.122;5.250;2022-08-04T05:08:20;7.2;;;3.3;;
62457;SDS011;48509;52.122;5.250;2022-08-04T05:11:29;6.4;;;3.1;;
62457;SDS011;48509;52.122;5.250;2022-08-04T05:13:32;3.9;;;3.1;;
62457;SDS011;48509;52.122;5.250;2022-08-04T05:15:21;5.7;;;3.1;;
62457;SDS011;48509;52.122;5.250;2022-08-04T05:17:17;7.9;;;3.3;;
62457;SDS011;48509;52.122;5.250;2022-08-04T05:21:16;7.3;;;3.5;;
62457;SDS011;48509;52.122;5.250;2022-08-04T05:23:18;6.4;;;3.0;;
62457;SDS011;48509;52.122;5.250;2022-08-04T05:25:11;4.0;;;3.0;;
62457;SDS011;48509;52.122;5.250;2022-08-04T05:27:07;9.81;;;3.4;;
62457;SDS011;48509;52.122;5.250;2022-08-04T05:29:01;13.4;;;3.3;;
62457;SDS011;48509;52.122;5.250;2022-08-04T05:30:54;5.2;;;3.3;;
62457;SDS011;48509;52.122;5.250;2022-08-04T05:32:45;3.8;;;3.0;;
62457;SDS011;48509;52.122;5.250;2022-08-04T05:34:39;5.9;;;3.3;;
62457;SDS011;48509;52.122;5.250;2022-08-04T05:36:30;5.3;;;3.1;;
62457;SDS011;48509;52.122;5.250;2022-08-04T05:38:30;5.0;;;3.1;;
62457;SDS011;48509;52.122;5.250;2022-08-04T05:40:21;4.7;;;3.4;;
62457;SDS011;48509;52.122;5.250;2022-08-04T05:43:57;3.9;;;2.9;;
62457;SDS011;48509;52.122;5.250;2022-08-04T05:45:47;7.5;;;3.3;;
62457;SDS011;48509;52.122;5.250;2022-08-04T05:47:36;4.41;;;3.2;;
62457;SDS011;48509;52.122;5.250;2022-08-04T05:49:24;7.0;;;3.1;;
62457;SDS011;48509;52.122;5.250;2022-08-04T05:51:13;5.2;;;3.0;;
62457;SDS011;48509;52.122;5.250;2022-08-04T05:53:01;5.11;;;2.9;;
62457;SDS011;48509;52.122;5.250;2022-08-04T05:56:36;6.5;;;3.4;;
62457;SDS011;48509;52.122;5.250;2022-08-04T05:58:25;6.7;;;3.5;;
62457;SDS011;48509;52.122;5.250;2022-08-04T06:00:16;5.4;;;3.2;;
62457;SDS011;48509;52.122;5.250;2022-08-04T06:02:03;6.2;;;3.3;;
62457;SDS011;48509;52.122;5.250;2022-08-04T06:03:53;6.9;;;3.8;;
62457;SDS011;48509;52.122;5.250;2022-08-04T06:05:41;5.11;;;3.0;;
62457;SDS011;48509;52.122;5.250;2022-08-04T06:07:29;8.1;;;3.7;;
62457;SDS011;48509;52.122;5.250;2022-08-04T06:11:04;6.5;;;3.2;;
62457;SDS011;48509;52.122;5.250;2022-08-04T06:12:54;7.7;;;3.5;;
62457;SDS011;48509;52.122;5.250;2022-08-04T06:14:46;6.0;;;3.2;;
62457;SDS011;48509;52.122;5.250;2022-08-04T06:16:36;7.3;;;3.5;;
62457;SDS011;48509;52.122;5.250;2022-08-04T06:18:26;5.7;;;3.1;;
62457;SDS011;48509;52.122;5.250;2022-08-04T06:20:14;4.91;;;3.1;;
62457;SDS011;48509;52.122;5.250;2022-08-04T06:23:54;6.0;;;2.9;;
62457;SDS011;48509;52.122;5.250;2022-08-04T06:25:45;7.9;;;3.3;;
62457;SDS011;48509;52.122;5.250;2022-08-04T06:27:34;6.7;;;3.4;;
62457;SDS011;48509;52.122;5.250;2022-08-04T06:29:29;9.9;;;3.2;;
62457;SDS011;48509;52.122;5.250;2022-08-04T06:31:31;10.21;;;3.9;;
62457;SDS011;48509;52.122;5.250;2022-08-04T06:33:32;5.4;;;3.2;;
62457;SDS011;48509;52.122;5.250;2022-08-04T06:35:20;11.4;;;3.5;;
62457;SDS011;48509;52.122;5.250;2022-08-04T06:37:09;5.8;;;3.6;;
62457;SDS011;48509;52.122;5.250;2022-08-04T06:38:56;6.6;;;3.4;;
62457;SDS011;48509;52.122;5.250;2022-08-04T06:42:31;8.6;;;3.5;;
62457;SDS011;48509;52.122;5.250;2022-08-04T06:44:19;5.4;;;3.1;;
62457;SDS011;48509;52.122;5.250;2022-08-04T06:46:07;6.0;;;3.0;;
62457;SDS011;48509;52.122;5.250;2022-08-04T06:47:55;9.5;;;3.1;;
62457;SDS011;48509;52.122;5.250;2022-08-04T06:49:43;8.6;;;3.1;;
62457;SDS011;48509;52.122;5.250;2022-08-04T06:51:32;5.3;;;3.2;;
62457;SDS011;48509;52.122;5.250;2022-08-04T06:55:07;8.31;;;3.1;;
62457;SDS011;48509;52.122;5.250;2022-08-04T06:56:54;6.9;;;3.2;;
62457;SDS011;48509;52.122;5.250;2022-08-04T06:58:43;7.7;;;2.9;;
62457;SDS011;48509;52.122;5.250;2022-08-04T07:00:31;5.4;;;2.5;;
62457;SDS011;48509;52.122;5.250;2022-08-04T07:02:22;4.41;;;2.7;;
62457;SDS011;48509;52.122;5.250;2022-08-04T07:04:12;10.21;;;3.0;;
62457;SDS011;48509;52.122;5.250;2022-08-04T07:07:47;6.9;;;2.8;;
62457;SDS011;48509;52.122;5.250;2022-08-04T07:09:34;6.2;;;2.8;;
62457;SDS011;48509;52.122;5.250;2022-08-04T07:11:21;8.31;;;3.2;;
62457;SDS011;48509;52.122;5.250;2022-08-04T07:13:08;13.6;;;3.2;;
62457;SDS011;48509;52.122;5.250;2022-08-04T07:14:56;5.9;;;2.7;;
62457;SDS011;48509;52.122;5.250;2022-08-04T07:16:43;10.9;;;2.9;;
62457;SDS011;48509;52.122;5.250;2022-08-04T07:20:18;5.5;;;2.4;;
62457;SDS011;48509;52.122;5.250;2022-08-04T07:22:06;8.81;;;3.0;;
62457;SDS011;48509;52.122;5.250;2022-08-04T07:23:53;7.1;;;2.6;;
62457;SDS011;48509;52.122;5.250;2022-08-04T07:25:39;7.5;;;2.4;;
62457;SDS011;48509;52.122;5.250;2022-08-04T07:27:27;6.2;;;2.4;;
62457;SDS011;48509;52.122;5.250;2022-08-04T07:29:15;8.31;;;2.31;;
62457;SDS011;48509;52.122;5.250;2022-08-04T07:32:51;5.7;;;2.6;;
62457;SDS011;48509;52.122;5.250;2022-08-04T07:34:39;6.2;;;2.4;;
62457;SDS011;48509;52.122;5.250;2022-08-04T07:36:26;5.0;;;2.4;;
62457;SDS011;48509;52.122;5.250;2022-08-04T07:38:13;7.6;;;2.6;;
62457;SDS011;48509;52.122;5.250;2022-08-04T07:40:00;5.11;;;2.31;;
62457;SDS011;48509;52.122;5.250;2022-08-04T07:41:46;5.6;;;2.4;;
62457;SDS011;48509;52.122;5.250;2022-08-04T07:45:21;6.1;;;2.4;;
62457;SDS011;48509;52.122;5.250;2022-08-04T07:47:09;8.4;;;2.6;;
62457;SDS011;48509;52.122;5.250;2022-08-04T07:48:58;4.5;;;2.6;;
62457;SDS011;48509;52.122;5.250;2022-08-04T07:50:46;7.7;;;2.7;;
62457;SDS011;48509;52.122;5.250;2022-08-04T07:52:33;3.1;;;2.1;;
62457;SDS011;48509;52.122;5.250;2022-08-04T07:54:21;10.1;;;2.7;;
62457;SDS011;48509;52.122;5.250;2022-08-04T07:57:58;7.6;;;2.8;;
62457;SDS011;48509;52.122;5.250;2022-08-04T07:59:45;5.4;;;2.4;;
62457;SDS011;48509;52.122;5.250;2022-08-04T08:01:31;7.3;;;2.6;;
62457;SDS011;48509;52.122;5.250;2022-08-04T08:03:19;8.2;;;2.6;;
62457;SDS011;48509;52.122;5.250;2022-08-04T08:05:08;11.4;;;2.8;;
62457;SDS011;48509;52.122;5.250;2022-08-04T08:06:57;5.4;;;2.6;;
62457;SDS011;48509;52.122;5.250;2022-08-04T08:10:31;11.4;;;2.5;;
62457;SDS011;48509;52.122;5.250;2022-08-04T08:12:17;8.5;;;2.6;;
62457;SDS011;48509;52.122;5.250;2022-08-04T08:14:07;11.0;;;3.1;;
62457;SDS011;48509;52.122;5.250;2022-08-04T08:15:54;7.2;;;2.8;;
62457;SDS011;48509;52.122;5.250;2022-08-04T08:17:41;8.71;;;2.7;;
62457;SDS011;48509;52.122;5.250;2022-08-04T08:19:28;8.2;;;2.4;;
62457;SDS011;48509;52.122;5.250;2022-08-04T08:23:05;7.2;;;2.31;;
62457;SDS011;48509;52.122;5.250;2022-08-04T08:24:53;6.6;;;2.9;;
62457;SDS011;48509;52.122;5.250;2022-08-04T08:26:39;15.3;;;2.7;;
62457;SDS011;48509;52.122;5.250;2022-08-04T08:28:26;5.5;;;2.5;;
62457;SDS011;48509;52.122;5.250;2022-08-04T08:30:13;6.3;;;2.31;;
62457;SDS011;48509;52.122;5.250;2022-08-04T08:31:59;6.0;;;2.31;;
62457;SDS011;48509;52.122;5.250;2022-08-04T08:35:41;5.9;;;2.4;;
62457;SDS011;48509;52.122;5.250;2022-08-04T08:37:39;8.71;;;2.5;;
62457;SDS011;48509;52.122;5.250;2022-08-04T08:39:44;10.5;;;2.7;;
62457;SDS011;48509;52.122;5.250;2022-08-04T08:41:43;7.7;;;2.5;;
62457;SDS011;48509;52.122;5.250;2022-08-04T08:44:00;7.6;;;2.21;;
62457;SDS011;48509;52.122;5.250;2022-08-04T08:46:37;7.3;;;2.5;;
62457;SDS011;48509;52.122;5.250;2022-08-04T08:49:11;9.5;;;2.9;;
62457;SDS011;48509;52.122;5.250;2022-08-04T08:51:37;5.7;;;2.4;;
62457;SDS011;48509;52.122;5.250;2022-08-04T08:53:42;5.5;;;2.6;;
62457;SDS011;48509;52.122;5.250;2022-08-04T08:55:57;3.7;;;2.0;;
62457;SDS011;48509;52.122;5.250;2022-08-04T08:58:06;6.2;;;2.4;;
62457;SDS011;48509;52.122;5.250;2022-08-04T09:00:40;6.6;;;2.4;;
62457;SDS011;48509;52.122;5.250;2022-08-04T09:02:48;9.1;;;2.5;;
62457;SDS011;48509;52.122;5.250;2022-08-04T09:05:36;5.9;;;1.8;;
62457;SDS011;48509;52.122;5.250;2022-08-04T09:09:03;7.4;;;2.21;;
62457;SDS011;48509;52.122;5.250;2022-08-04T09:11:09;5.5;;;2.4;;
62457;SDS011;48509;52.122;5.250;2022-08-04T09:13:01;4.8;;;2.1;;
62457;SDS011;48509;52.122;5.250;2022-08-04T09:14:54;8.0;;;2.21;;
62457;SDS011;48509;52.122;5.250;2022-08-04T09:16:54;8.31;;;2.31;;
62457;SDS011;48509;52.122;5.250;2022-08-04T09:18:51;4.3;;;2.31;;
62457;SDS011;48509;52.122;5.250;2022-08-04T09:20:46;5.4;;;2.5;;
62457;SDS011;48509;52.122;5.250;2022-08-04T09:22:42;4.91;;;2.31;;
62457;SDS011;48509;52.122;5.250;2022-08-04T09:24:36;4.91;;;2.1;;
62457;SDS011;48509;52.122;5.250;2022-08-04T09:26:37;4.1;;;2.31;;
62457;SDS011;48509;52.122;5.250;2022-08-04T09:28:30;6.6;;;2.1;;
62457;SDS011;48509;52.122;5.250;2022-08-04T09:30:31;5.8;;;2.21;;
62457;SDS011;48509;52.122;5.250;2022-08-04T09:32:29;7.5;;;2.4;;
62457;SDS011;48509;52.122;5.250;2022-08-04T09:36:34;7.6;;;2.1;;
62457;SDS011;48509;52.122;5.250;2022-08-04T09:38:26;6.8;;;2.1;;
62457;SDS011;48509;52.122;5.250;2022-08-04T09:40:22;7.1;;;2.21;;
62457;SDS011;48509;52.122;5.250;2022-08-04T09:42:27;5.7;;;2.31;;
62457;SDS011;48509;52.122;5.250;2022-08-04T09:44:27;4.8;;;1.7;;
62457;SDS011;48509;52.122;5.250;2022-08-04T09:46:24;5.6;;;1.9;;
62457;SDS011;48509;52.122;5.250;2022-08-04T09:48:16;4.3;;;2.0;;
62457;SDS011;48509;52.122;5.250;2022-08-04T09:50:14;3.7;;;1.8;;
62457;SDS011;48509;52.122;5.250;2022-08-04T09:52:16;5.5;;;1.6;;
62457;SDS011;48509;52.122;5.250;2022-08-04T09:54:13;3.8;;;1.6;;
62457;SDS011;48509;52.122;5.250;2022-08-04T09:56:07;4.1;;;1.8;;
62457;SDS011;48509;52.122;5.250;2022-08-04T09:58:00;4.1;;;1.8;;
62457;SDS011;48509;52.122;5.250;2022-08-04T09:59:56;5.11;;;1.7;;
62457;SDS011;48509;52.122;5.250;2022-08-04T10:01:48;11.1;;;2.0;;
62457;SDS011;48509;52.122;5.250;2022-08-04T10:05:39;5.4;;;1.8;;
62457;SDS011;48509;52.122;5.250;2022-08-04T10:08:01;5.11;;;1.6;;
62457;SDS011;48509;52.122;5.250;2022-08-04T10:10:09;5.3;;;1.7;;
62457;SDS011;48509;52.122;5.250;2022-08-04T10:12:18;5.3;;;1.7;;
62457;SDS011;48509;52.122;5.250;2022-08-04T10:14:48;3.7;;;1.6;;
62457;SDS011;48509;52.122;5.250;2022-08-04T10:16:39;3.6;;;1.6;;
62457;SDS011;48509;52.122;5.250;2022-08-04T10:18:37;3.1;;;1.7;;
62457;SDS011;48509;52.122;5.250;2022-08-04T10:20:41;3.7;;;1.6;;
62457;SDS011;48509;52.122;5.250;2022-08-04T10:22:52;3.9;;;1.7;;
62457;SDS011;48509;52.122;5.250;2022-08-04T10:24:52;9.31;;;1.9;;
62457;SDS011;48509;52.122;5.250;2022-08-04T10:26:55;6.3;;;2.0;;
62457;SDS011;48509;52.122;5.250;2022-08-04T10:30:42;6.2;;;2.1;;
62457;SDS011;48509;52.122;5.250;2022-08-04T10:32:39;7.9;;;1.5;;
62457;SDS011;48509;52.122;5.250;2022-08-04T10:34:35;6.6;;;1.7;;
62457;SDS011;48509;52.122;5.250;2022-08-04T10:36:29;3.6;;;1.6;;
62457;SDS011;48509;52.122;5.250;2022-08-04T10:38:36;2.9;;;1.7;;
62457;SDS011;48509;52.122;5.250;2022-08-04T10:40:45;3.5;;;1.7;;
62457;SDS011;48509;52.122;5.250;2022-08-04T10:42:36;6.1;;;1.7;;
62457;SDS011;48509;52.122;5.250;2022-08-04T10:44:27;5.11;;;1.7;;
62457;SDS011;48509;52.122;5.250;2022-08-04T10:50:26;4.3;;;1.7;;
62457;SDS011;48509;52.122;5.250;2022-08-04T10:52:17;5.7;;;1.6;;
62457;SDS011;48509;52.122;5.250;2022-08-04T10:54:12;3.7;;;1.5;;
62457;SDS011;48509;52.122;5.250;2022-08-04T10:58:01;4.41;;;1.6;;
62457;SDS011;48509;52.122;5.250;2022-08-04T11:01:48;2.1;;;1.5;;
62457;SDS011;48509;52.122;5.250;2022-08-04T11:03:43;2.5;;;1.6;;
62457;SDS011;48509;52.122;5.250;2022-08-04T11:05:40;3.5;;;1.2;;
62457;SDS011;48509;52.122;5.250;2022-08-04T11:07:33;3.6;;;1.6;;
62457;SDS011;48509;52.122;5.250;2022-08-04T11:09:24;2.31;;;1.4;;
62457;SDS011;48509;52.122;5.250;2022-08-04T11:13:10;6.7;;;1.7;;
62457;SDS011;48509;52.122;5.250;2022-08-04T11:15:00;4.0;;;1.7;;
62457;SDS011;48509;52.122;5.250;2022-08-04T11:18:47;3.7;;;1.6;;
62457;SDS011;48509;52.122;5.250;2022-08-04T11:20:52;4.8;;;1.4;;
62457;SDS011;48509;52.122;5.250;2022-08-04T11:22:47;4.61;;;1.2;;
62457;SDS011;48509;52.122;5.250;2022-08-04T11:24:43;3.7;;;1.4;;
62457;SDS011;48509;52.122;5.250;2022-08-04T11:26:36;3.7;;;1.4;;
62457;SDS011;48509;52.122;5.250;2022-08-04T11:28:35;3.3;;;1.4;;
62457;SDS011;48509;52.122;5.250;2022-08-04T11:30:35;4.91;;;1.6;;
62457;SDS011;48509;52.122;5.250;2022-08-04T11:32:30;2.31;;;1.3;;
62457;SDS011;48509;52.122;5.250;2022-08-04T11:34:22;4.3;;;1.7;;
62457;SDS011;48509;52.122;5.250;2022-08-04T11:36:13;3.0;;;1.3;;
62457;SDS011;48509;52.122;5.250;2022-08-04T11:38:08;3.8;;;1.7;;
62457;SDS011;48509;52.122;5.250;2022-08-04T11:40:05;2.6;;;1.3;;
62457;SDS011;48509;52.122;5.250;2022-08-04T11:43:55;3.8;;;1.3;;
62457;SDS011;48509;52.122;5.250;2022-08-04T11:45:44;3.8;;;1.5;;
62457;SDS011;48509;52.122;5.250;2022-08-04T11:47:40;4.91;;;1.5;;
62457;SDS011;48509;52.122;5.250;2022-08-04T11:49:41;4.7;;;1.6;;
62457;SDS011;48509;52.122;5.250;2022-08-04T11:51:35;2.4;;;1.4;;
62457;SDS011;48509;52.122;5.250;2022-08-04T11:53:25;2.9;;;1.3;;
62457;SDS011;48509;52.122;5.250;2022-08-04T11:55:14;2.21;;;1.3;;
62457;SDS011;48509;52.122;5.250;2022-08-04T11:57:04;4.0;;;1.6;;
62457;SDS011;48509;52.122;5.250;2022-08-04T12:00:41;1.3;;;1.11;;
62457;SDS011;48509;52.122;5.250;2022-08-04T12:02:44;3.6;;;1.4;;
62457;SDS011;48509;52.122;5.250;2022-08-04T12:05:08;4.5;;;1.3;;
62457;SDS011;48509;52.122;5.250;2022-08-04T12:09:03;2.0;;;1.3;;
62457;SDS011;48509;52.122;5.250;2022-08-04T12:11:00;8.31;;;1.6;;
62457;SDS011;48509;52.122;5.250;2022-08-04T12:13:09;6.0;;;1.6;;
62457;SDS011;48509;52.122;5.250;2022-08-04T12:15:07;3.4;;;1.4;;
62457;SDS011;48509;52.122;5.250;2022-08-04T12:17:03;3.0;;;1.5;;
62457;SDS011;48509;52.122;5.250;2022-08-04T12:18:53;6.1;;;1.6;;
62457;SDS011;48509;52.122;5.250;2022-08-04T12:20:44;2.8;;;1.3;;
62457;SDS011;48509;52.122;5.250;2022-08-04T12:22:35;3.9;;;1.3;;
62457;SDS011;48509;52.122;5.250;2022-08-04T12:24:26;2.9;;;1.6;;
62457;SDS011;48509;52.122;5.250;2022-08-04T12:26:25;2.4;;;1.4;;
62457;SDS011;48509;52.122;5.250;2022-08-04T12:28:21;3.2;;;1.8;;
62457;SDS011;48509;52.122;5.250;2022-08-04T12:32:06;3.6;;;1.5;;
62457;SDS011;48509;52.122;5.250;2022-08-04T12:34:08;3.4;;;1.7;;
62457;SDS011;48509;52.122;5.250;2022-08-04T12:36:04;5.9;;;1.7;;
62457;SDS011;48509;52.122;5.250;2022-08-04T12:38:04;3.7;;;1.4;;
62457;SDS011;48509;52.122;5.250;2022-08-04T12:39:53;3.9;;;1.6;;
62457;SDS011;48509;52.122;5.250;2022-08-04T12:42:01;3.2;;;1.8;;
62457;SDS011;48509;52.122;5.250;2022-08-04T12:43:54;6.4;;;2.1;;
62457;SDS011;48509;52.122;5.250;2022-08-04T12:45:50;4.41;;;1.9;;
62457;SDS011;48509;52.122;5.250;2022-08-04T12:47:40;3.6;;;1.7;;
62457;SDS011;48509;52.122;5.250;2022-08-04T12:49:29;2.21;;;1.6;;
62457;SDS011;48509;52.122;5.250;2022-08-04T12:51:17;3.3;;;1.9;;
62457;SDS011;48509;52.122;5.250;2022-08-04T12:54:57;2.31;;;1.8;;
62457;SDS011;48509;52.122;5.250;2022-08-04T12:56:45;3.5;;;1.7;;
62457;SDS011;48509;52.122;5.250;2022-08-04T12:58:35;5.5;;;1.9;;
62457;SDS011;48509;52.122;5.250;2022-08-04T13:00:32;3.7;;;2.1;;
62457;SDS011;48509;52.122;5.250;2022-08-04T13:02:22;3.7;;;2.4;;
62457;SDS011;48509;52.122;5.250;2022-08-04T13:04:17;3.4;;;2.21;;
62457;SDS011;48509;52.122;5.250;2022-08-04T13:06:07;3.8;;;2.0;;
62457;SDS011;48509;52.122;5.250;2022-08-04T13:07:58;7.5;;;2.1;;
62457;SDS011;48509;52.122;5.250;2022-08-04T13:11:36;2.7;;;1.8;;
62457;SDS011;48509;52.122;5.250;2022-08-04T13:13:26;5.0;;;1.5;;
62457;SDS011;48509;52.122;5.250;2022-08-04T13:15:19;1.6;;;1.4;;
62457;SDS011;48509;52.122;5.250;2022-08-04T13:17:08;2.5;;;1.4;;
62457;SDS011;48509;52.122;5.250;2022-08-04T13:18:55;4.0;;;1.3;;
62457;SDS011;48509;52.122;5.250;2022-08-04T13:20:43;3.8;;;1.4;;
62457;SDS011;48509;52.122;5.250;2022-08-04T13:24:21;2.5;;;1.3;;
62457;SDS011;48509;52.122;5.250;2022-08-04T13:26:09;1.7;;;1.2;;
62457;SDS011;48509;52.122;5.250;2022-08-04T13:27:57;3.3;;;1.4;;
62457;SDS011;48509;52.122;5.250;2022-08-04T13:29:45;4.5;;;1.4;;
62457;SDS011;48509;52.122;5.250;2022-08-04T13:31:35;2.21;;;1.4;;
62457;SDS011;48509;52.122;5.250;2022-08-04T13:33:28;2.1;;;1.4;;
62457;SDS011;48509;52.122;5.250;2022-08-04T13:35:17;2.5;;;1.4;;
62457;SDS011;48509;52.122;5.250;2022-08-04T13:38:52;4.41;;;1.2;;
62457;SDS011;48509;52.122;5.250;2022-08-04T13:40:42;2.1;;;1.3;;
62457;SDS011;48509;52.122;5.250;2022-08-04T13:42:31;3.4;;;1.3;;
62457;SDS011;48509;52.122;5.250;2022-08-04T13:44:21;2.7;;;1.3;;
62457;SDS011;48509;52.122;5.250;2022-08-04T13:46:19;5.7;;;1.4;;
62457;SDS011;48509;52.122;5.250;2022-08-04T13:48:10;5.6;;;1.3;;
62457;SDS011;48509;52.122;5.250;2022-08-04T13:50:09;6.8;;;1.4;;